Time;durP1;ratioP1;P1;durP2;ratioP2;P2;SDS_P1;SDS_P2;PMS_P1;PMS_P2;Temp;Humidity;BMP_temperature;BMP_pressure;BME280_temperature;BME280_humidity;BME280_pressure;Samples;Min_cycle;Max_cycle;Signal;HPM_P1;HPM_P2
2021/05/18 00:01:06;;;;;;;1.40;1.30;;;;;;;10.60;75.19;98515.81;3580611;40;20049;-65
2021/05/18 00:03:34;;;;;;;1.60;1.50;;;;;;;10.56;75.33;98515.38;3589260;40;20498;-65
2021/05/18 00:06:03;;;;;;;1.98;1.60;;;;;;;10.58;75.30;98510.72;3579676;40;20048;-65
2021/05/18 00:08:32;;;;;;;1.55;1.45;;;;;;;10.58;75.13;98516.03;3589622;40;20052;-65
2021/05/18 00:13:50;;;;;;;2.00;1.80;;;;;;;10.59;75.57;98516.84;3589784;40;20052;-65
2021/05/18 00:16:18;;;;;;;2.75;1.75;;;;;;;10.60;75.40;98519.25;3589944;40;20087;-65
2021/05/18 00:18:46;;;;;;;2.47;1.70;;;;;;;10.60;75.41;98519.25;3589718;40;20433;-65
2021/05/18 00:21:14;;;;;;;2.13;1.65;;;;;;;10.60;75.37;98518.44;3589835;40;20045;-65
2021/05/18 00:23:42;;;;;;;2.20;1.77;;;;;;;10.66;75.09;98520.31;3590019;40;20044;-66
2021/05/18 00:26:09;;;;;;;4.57;1.92;;;;;;;10.68;75.14;98520.09;3589690;40;20059;-65
2021/05/18 00:28:37;;;;;;;2.53;1.90;;;;;;;10.70;75.30;98523.38;3589497;40;20060;-65
2021/05/18 00:31:04;;;;;;;3.22;2.00;;;;;;;10.76;74.93;98525.19;3589687;40;20039;-66
2021/05/18 00:33:33;;;;;;;2.90;2.05;;;;;;;10.83;74.80;98521.56;3589812;40;20048;-64
2021/05/18 00:36:03;;;;;;;2.40;1.90;;;;;;;10.83;74.82;98524.19;3589790;40;20048;-65
2021/05/18 00:38:30;;;;;;;2.92;2.28;;;;;;;10.90;74.87;98522.41;3589677;40;20049;-65
2021/05/18 00:40:58;;;;;;;3.40;1.98;;;;;;;10.95;74.92;98534.19;3589691;40;20037;-65
2021/05/18 00:43:25;;;;;;;2.47;2.13;;;;;;;10.96;74.63;98522.59;3580434;40;20052;-66
2021/05/18 00:45:53;;;;;;;3.70;2.65;;;;;;;10.95;74.95;98516.50;3589600;40;20044;-66
2021/05/18 00:48:22;;;;;;;9.30;2.92;;;;;;;10.98;74.86;98515.25;3579917;40;20045;-65
2021/05/18 00:50:55;;;;;;;4.07;2.05;;;;;;;11.00;74.78;98515.88;3580246;40;20049;-65
2021/05/18 00:53:24;;;;;;;6.30;2.58;;;;;;;10.98;75.09;98515.25;3580246;40;20052;-66
2021/05/18 00:56:02;;;;;;;3.25;2.50;;;;;;;10.97;74.86;98514.44;3580429;40;20060;-65
2021/05/18 00:58:34;;;;;;;2.97;2.20;;;;;;;10.96;75.12;98519.94;3589576;40;20132;-65
2021/05/18 01:01:04;;;;;;;7.28;3.00;;;;;;;10.88;75.16;98524.41;3580377;40;20032;-65
2021/05/18 01:03:33;;;;;;;2.22;2.03;;;;;;;10.91;75.18;98523.19;3580455;40;20078;-66
2021/05/18 01:06:21;;;;;;;2.70;2.50;;;;;;;10.92;75.55;98524.81;3590150;40;20048;-65
2021/05/18 01:08:51;;;;;;;3.80;1.98;;;;;;;10.88;75.34;98524.41;3589558;40;20048;-66
2021/05/18 01:11:22;;;;;;;3.03;2.13;;;;;;;10.86;75.43;98528.28;3580349;40;20091;-65
2021/05/18 01:13:50;;;;;;;3.83;2.00;;;;;;;10.87;75.36;98532.56;3589613;40;20392;-66
2021/05/18 01:16:17;;;;;;;2.50;2.03;;;;;;;10.95;75.34;98528.91;3589826;40;20060;-66
2021/05/18 01:18:47;;;;;;;3.15;1.90;;;;;;;10.90;75.22;98538.25;3589057;40;20044;-65
2021/05/18 01:21:16;;;;;;;2.83;2.30;;;;;;;10.88;75.34;98536.81;3579970;40;20064;-66
2021/05/18 01:23:45;;;;;;;2.15;1.90;;;;;;;10.86;75.23;98539.69;3589651;40;20379;-66
2021/05/18 01:26:14;;;;;;;3.78;1.85;;;;;;;10.87;75.39;98532.56;3589364;40;20060;-66
2021/05/18 01:28:43;;;;;;;2.25;2.03;;;;;;;10.91;75.60;98528.50;3589095;40;20311;-66
2021/05/18 01:31:13;;;;;;;4.10;2.00;;;;;;;10.96;75.48;98543.75;3579945;40;20033;-66
2021/05/18 01:33:40;;;;;;;4.75;2.47;;;;;;;10.93;75.30;98546.78;3580058;40;20044;-65
2021/05/18 01:36:10;;;;;;;3.08;2.22;;;;;;;10.92;75.05;98548.63;3589996;40;20376;-65
2021/05/18 01:38:43;;;;;;;4.10;2.55;;;;;;;10.96;74.91;98544.56;3589159;40;20567;-65
2021/05/18 01:43:58;;;;;;;3.60;1.88;;;;;;;10.91;75.10;98539.88;3589833;40;20138;-65
2021/05/18 01:46:28;;;;;;;5.82;2.25;;;;;;;10.93;74.85;98542.31;3580913;40;20059;-64
2021/05/18 01:48:58;;;;;;;3.13;2.42;;;;;;;10.94;75.05;98538.69;3580317;40;20059;-64
2021/05/18 01:51:34;;;;;;;4.65;2.35;;;;;;;10.97;74.55;98540.09;3580614;40;20055;-64
2021/05/18 01:54:07;;;;;;;4.57;2.78;;;;;;;10.98;74.45;98553.13;3580370;40;20055;-65
2021/05/18 01:56:45;;;;;;;3.10;2.75;;;;;;;10.96;74.59;98549.84;3589788;40;20025;-64
2021/05/18 01:59:17;;;;;;;6.82;3.13;;;;;;;10.97;74.63;98550.66;3579882;40;20053;-66
2021/05/18 02:01:47;;;;;;;3.67;3.38;;;;;;;10.97;74.31;98553.31;3580212;40;20037;-65
2021/05/18 02:04:23;;;;;;;6.57;3.78;;;;;;;10.92;73.96;98553.91;3580100;40;20060;-64
2021/05/18 02:06:53;;;;;;;8.77;3.75;;;;;;;10.89;74.23;98556.94;3579836;40;20079;-64
2021/05/18 02:09:22;;;;;;;4.53;3.47;;;;;;;10.91;73.92;98560.22;3589644;40;20048;-63
2021/05/18 02:11:53;;;;;;;4.07;3.42;;;;;;;10.85;73.79;98556.53;3580505;40;20045;-66
2021/05/18 02:14:25;;;;;;;5.45;3.70;;;;;;;10.89;74.02;98564.88;3581265;40;20055;-66
2021/05/18 02:17:02;;;;;;;6.30;4.13;;;;;;;10.85;73.54;98567.13;3582121;40;20133;-66
2021/05/18 02:19:47;;;;;;;12.30;4.07;;;;;;;10.86;73.38;98563.47;3582137;40;20048;-64
2021/05/18 02:25:11;;;;;;;6.15;4.00;;;;;;;10.82;73.48;98569.38;3581130;40;20055;-65
2021/05/18 02:27:58;;;;;;;6.78;4.20;;;;;;;10.86;73.65;98562.66;3581996;40;20378;-65
2021/05/18 02:30:29;;;;;;;5.22;4.05;;;;;;;10.88;73.52;98569.38;3590176;40;20133;-66
2021/05/18 02:32:57;;;;;;;5.10;4.15;;;;;;;10.87;73.29;98573.03;3685349;22;20032;-61
2021/05/18 02:35:34;;;;;;;5.30;3.95;;;;;;;10.83;73.16;98563.88;3599271;39;20048;-61
2021/05/18 02:38:02;;;;;;;5.45;3.90;;;;;;;10.81;73.35;98560.59;3598169;40;20032;-63
2021/05/18 02:40:31;;;;;;;4.53;3.70;;;;;;;10.85;73.35;98567.13;3598113;40;20131;-62
2021/05/18 02:42:59;;;;;;;4.05;3.65;;;;;;;10.85;73.44;98569.75;3599382;39;20349;-64
2021/05/18 02:45:31;;;;;;;4.10;3.65;;;;;;;10.87;73.49;98567.75;3598383;40;20051;-64
2021/05/18 02:50:48;;;;;;;3.85;3.55;;;;;;;10.77;73.32;98569.94;3598125;40;20397;-62
2021/05/18 02:53:21;;;;;;;3.80;3.00;;;;;;;10.77;73.07;98569.13;3598178;40;20024;-64
2021/05/18 02:55:57;;;;;;;4.20;3.20;;;;;;;10.68;73.40;98568.50;3599297;40;20572;-64
2021/05/18 02:58:25;;;;;;;4.03;3.28;;;;;;;10.73;73.56;98571.34;3600261;40;20059;-64
2021/05/18 03:00:52;;;;;;;5.22;3.47;;;;;;;10.75;73.29;98571.16;3601419;39;20024;-64
2021/05/18 03:03:20;;;;;;;4.50;3.38;;;;;;;10.81;73.42;98571.16;3599832;39;20049;-65
2021/05/18 03:05:47;;;;;;;4.45;3.40;;;;;;;10.86;73.32;98573.25;3599084;40;20414;-63
2021/05/18 03:08:15;;;;;;;4.97;3.13;;;;;;;10.85;72.90;98568.94;3599690;40;20058;-64
2021/05/18 03:10:42;;;;;;;4.90;2.75;;;;;;;10.80;73.14;98569.53;3598913;39;20052;-64
2021/05/18 03:13:11;;;;;;;4.80;2.65;;;;;;;10.87;73.18;98569.56;3599266;40;20052;-64
2021/05/18 03:15:38;;;;;;;4.70;2.67;;;;;;;10.88;73.36;98566.72;3599670;40;20056;-64
2021/05/18 03:18:06;;;;;;;3.08;2.00;;;;;;;10.89;73.39;98572.81;3599021;40;20048;-64
2021/05/18 03:20:33;;;;;;;5.05;2.58;;;;;;;10.81;73.14;98571.16;3599265;40;20397;-64
2021/05/18 03:23:01;;;;;;;2.53;1.58;;;;;;;10.80;73.15;98576.66;3598419;40;20056;-64
2021/05/18 03:25:28;;;;;;;5.28;1.98;;;;;;;10.77;73.15;98566.47;3598873;39;20040;-64
2021/05/18 03:27:57;;;;;;;4.07;2.03;;;;;;;10.77;73.21;98579.69;3598672;40;20059;-63
2021/05/18 03:30:42;;;;;;;3.05;2.15;;;;;;;10.81;73.08;98573.00;3598740;39;20048;-64
2021/05/18 03:35:54;;;;;;;7.85;2.10;;;;;;;10.68;72.91;98581.72;3598761;40;20067;-63
2021/05/18 03:38:26;;;;;;;4.38;1.90;;;;;;;10.65;73.22;98584.75;3597605;40;20058;-64
2021/05/18 03:40:56;;;;;;;3.75;1.77;;;;;;;10.64;73.10;98583.94;3598768;39;20382;-63
2021/05/18 03:43:40;;;;;;;3.75;1.95;;;;;;;10.59;73.69;98588.19;3598408;39;20044;-62
2021/05/18 03:52:17;;;;;;;2.20;1.55;;;;;;;10.54;73.76;98590.63;3600239;39;20332;-63
2021/05/18 03:54:40;;;;;;;2.63;1.55;;;;;;;10.65;73.65;98600.59;3599004;40;20071;-63
2021/05/18 04:02:50;;;;;;;1.92;1.50;;;;;;;10.69;73.52;98601.84;3600257;39;20032;-63
2021/05/18 04:10:11;;;;;;;2.45;1.67;;;;;;;10.61;73.98;98592.28;3600127;39;20156;-63
2021/05/18 04:19:10;;;;;;;2.85;1.60;;;;;;;10.71;74.24;98605.13;3599884;40;20044;-63
2021/05/18 04:21:49;;;;;;;3.97;2.05;;;;;;;10.76;74.41;98607.97;3599629;39;20032;-63
2021/05/18 04:41:14;;;;;;;3.05;1.73;;;;;;;10.79;74.33;98626.09;3600258;40;20124;-63
2021/05/18 04:52:16;;;;;;;3.45;2.65;;;;;;;10.91;73.82;98631.63;3578095;40;20051;-63
2021/05/18 05:00:23;;;;;;;3.92;2.58;;;;;;;11.01;73.88;98628.59;3599633;39;20047;-63
2021/05/18 05:03:07;;;;;;;3.38;2.60;;;;;;;11.07;73.38;98636.56;3600298;39;20300;-64
2021/05/18 05:08:24;;;;;;;5.13;3.20;;;;;;;10.97;73.83;98646.69;3600375;40;20060;-64
2021/05/18 05:16:24;;;;;;;4.35;3.03;;;;;;;10.93;73.44;98645.47;3599810;40;20128;-64
2021/05/18 05:18:51;;;;;;;4.53;3.33;;;;;;;10.87;73.54;98643.63;3599872;40;20051;-63
2021/05/18 05:21:22;;;;;;;5.20;3.25;;;;;;;10.88;73.49;98651.34;3599528;39;20047;-64
2021/05/18 05:23:50;;;;;;;3.22;2.67;;;;;;;11.01;73.45;98649.75;3598595;40;20359;-64
2021/05/18 05:26:17;;;;;;;3.20;2.53;;;;;;;10.92;73.07;98649.13;3599885;39;20074;-64
2021/05/18 05:28:44;;;;;;;3.13;2.35;;;;;;;11.04;72.76;98650.19;3599691;40;20032;-64
2021/05/18 05:31:12;;;;;;;4.32;2.55;;;;;;;11.11;72.32;98648.38;3599817;40;20500;-65
2021/05/18 05:33:39;;;;;;;5.70;2.67;;;;;;;11.24;71.82;98646.78;3600353;40;20052;-65
2021/05/18 05:36:07;;;;;;;6.25;2.20;;;;;;;11.22;71.35;98638.22;3600344;40;20152;-65
2021/05/18 05:38:34;;;;;;;5.97;2.63;;;;;;;11.08;71.77;98643.47;3599554;39;20056;-64
2021/05/18 05:41:02;;;;;;;3.15;1.70;;;;;;;11.04;71.47;98638.78;3599695;39;20048;-63
2021/05/18 05:43:30;;;;;;;5.50;2.10;;;;;;;11.22;71.33;98648.78;3599568;39;20087;-63
2021/05/18 05:45:57;;;;;;;2.35;1.88;;;;;;;11.35;71.13;98652.31;3599030;40;20024;-64
2021/05/18 05:48:25;;;;;;;3.75;1.67;;;;;;;11.22;70.88;98652.25;3599191;40;20096;-65
2021/05/18 05:50:52;;;;;;;3.63;2.00;;;;;;;11.15;71.07;98652.25;3600025;40;20060;-65
2021/05/18 05:53:19;;;;;;;3.40;1.60;;;;;;;11.09;70.82;98653.03;3598808;40;20051;-64
2021/05/18 05:55:46;;;;;;;2.33;1.63;;;;;;;11.25;70.21;98648.41;3600029;39;20055;-65
2021/05/18 05:58:15;;;;;;;1.75;1.50;;;;;;;11.30;70.51;98651.25;3599408;39;20393;-63
2021/05/18 06:00:42;;;;;;;2.60;1.77;;;;;;;11.37;70.21;98657.38;3599798;40;20056;-64
2021/05/18 06:03:10;;;;;;;4.72;2.13;;;;;;;11.50;70.29;98665.34;3599538;39;20047;-64
2021/05/18 06:05:38;;;;;;;3.92;2.30;;;;;;;11.63;70.20;98661.88;3598239;39;20374;-65
2021/05/18 06:08:05;;;;;;;3.28;2.75;;;;;;;11.72;70.10;98658.03;3598077;40;20136;-65
2021/05/18 06:10:35;;;;;;;4.95;2.83;;;;;;;11.96;69.85;98663.75;3599096;40;20040;-65
2021/05/18 06:13:15;;;;;;;4.90;3.42;;;;;;;12.01;69.06;98666.63;3598366;40;20048;-63
2021/05/18 06:34:01;;;;;;;7.60;4.65;;;;;;;11.94;69.42;98679.06;3586150;39;20054;-62
2021/05/18 06:41:33;;;;;;;9.02;4.85;;;;;;;11.75;69.14;98697.34;3599109;40;20055;-64
2021/05/18 06:46:57;;;;;;;7.72;4.88;;;;;;;11.90;68.26;98710.44;3597868;40;20056;-63
2021/05/18 06:49:26;;;;;;;7.65;4.95;;;;;;;12.06;68.32;98702.06;3598779;39;20332;-63
2021/05/18 06:51:55;;;;;;;8.20;4.40;;;;;;;12.11;67.84;98704.91;3598780;40;20052;-63
2021/05/18 06:54:22;;;;;;;10.80;4.70;;;;;;;12.15;67.88;98706.13;3598723;40;20074;-62
2021/05/18 06:56:53;;;;;;;8.68;4.78;;;;;;;11.98;68.06;98717.34;3598347;40;20063;-63
2021/05/18 07:02:06;;;;;;;7.00;4.93;;;;;;;11.72;67.44;98712.84;3598449;39;20051;-64
2021/05/18 07:04:37;;;;;;;9.57;5.40;;;;;;;11.65;68.02;98712.81;3598665;39;20035;-64
2021/05/18 07:07:13;;;;;;;9.05;4.65;;;;;;;11.56;67.99;98714.03;3598824;39;20027;-64
2021/05/18 07:09:41;;;;;;;8.68;4.97;;;;;;;11.63;68.12;98706.88;3597805;40;20054;-64
2021/05/18 07:12:09;;;;;;;8.18;4.25;;;;;;;11.74;67.33;98710.78;3598288;40;20051;-63
2021/05/18 07:14:36;;;;;;;7.97;3.50;;;;;;;11.89;66.65;98725.50;3598885;39;20051;-64
2021/05/18 07:17:03;;;;;;;5.47;3.58;;;;;;;11.92;65.77;98726.09;3598499;39;20393;-64
2021/05/18 07:19:30;;;;;;;5.28;3.42;;;;;;;12.06;65.63;98720.63;3598778;40;20054;-64
2021/05/18 07:21:59;;;;;;;7.78;3.63;;;;;;;12.18;65.74;98723.47;3598783;40;20048;-64
2021/05/18 07:24:29;;;;;;;9.82;3.70;;;;;;;12.36;65.28;98718.34;3598671;40;20337;-65
2021/05/18 07:26:56;;;;;;;9.73;3.53;;;;;;;12.35;65.11;98710.59;3598000;40;20046;-65
2021/05/18 07:29:24;;;;;;;7.78;3.10;;;;;;;12.28;64.97;98713.25;3598492;40;20054;-65
2021/05/18 07:31:51;;;;;;;8.98;3.45;;;;;;;12.19;65.38;98714.50;3584613;39;559974;-64
2021/05/18 07:34:18;;;;;;;5.65;3.30;;;;;;;12.10;65.92;98716.53;3598832;40;20055;-64
2021/05/18 07:36:46;;;;;;;4.25;2.40;;;;;;;11.98;65.18;98723.47;3598992;40;20055;-64
2021/05/18 07:39:14;;;;;;;7.82;2.42;;;;;;;11.88;65.69;98723.88;3598697;40;20060;-64
2021/05/18 07:41:42;;;;;;;5.82;2.40;;;;;;;11.87;66.25;98711.63;3598924;40;20413;-64
2021/05/18 07:44:09;;;;;;;5.28;2.75;;;;;;;11.88;66.32;98713.28;3599297;40;20032;-65
2021/05/18 07:46:39;;;;;;;5.72;2.33;;;;;;;11.93;66.29;98722.47;3599096;40;20337;-64
2021/05/18 07:49:24;;;;;;;8.38;2.95;;;;;;;11.99;66.97;98725.09;3598791;39;20100;-62
2021/05/18 07:59:13;;;;;;;9.63;2.97;;;;;;;11.95;67.42;98725.69;3599007;40;20125;-63
2021/05/18 08:00:40;;;;;;;6.45;3.72;;;;;;;11.43;69.81;98725.41;3598246;40;20344;-64
2021/05/18 08:05:53;;;;;;;6.50;3.08;;;;;;;10.93;70.59;98747.78;3598815;40;20129;-63
2021/05/18 08:08:21;;;;;;;4.78;2.55;;;;;;;10.72;70.53;98741.59;3597465;40;20082;-63
2021/05/18 08:10:51;;;;;;;4.30;1.92;;;;;;;10.57;70.92;98725.00;3598870;40;20043;-63
2021/05/18 08:13:22;;;;;;;5.10;2.60;;;;;;;10.44;71.79;98733.69;3598600;40;20044;-64
2021/05/18 10:34:46;;;;;;;1.70;0.82;;;;;;;14.07;57.33;98650.53;3601288;40;20040;-65
2021/05/18 10:37:36;;;;;;;2.05;0.80;;;;;;;14.36;56.94;98649.00;3601569;40;20051;-64
2021/05/18 10:40:32;;;;;;;1.63;0.80;;;;;;;14.59;55.42;98656.38;3601273;40;20380;-65
2021/05/18 10:43:17;;;;;;;2.10;1.00;;;;;;;14.76;55.09;98652.06;3599924;40;20040;-66
2021/05/18 10:46:09;;;;;;;2.05;0.70;;;;;;;14.72;53.39;98658.88;3600345;39;20051;-65
2021/05/18 10:48:56;;;;;;;1.55;0.90;;;;;;;14.68;51.75;98654.22;3599310;40;20352;-66
2021/05/18 10:51:51;;;;;;;1.45;1.08;;;;;;;14.76;53.05;98648.59;3599046;39;20403;-65
2021/05/18 10:54:33;;;;;;;1.83;0.70;;;;;;;15.00;51.20;98644.22;3600016;40;20043;-65
2021/05/18 10:57:14;;;;;;;2.75;0.80;;;;;;;14.93;50.59;98638.97;3599223;40;20075;-66
2021/05/18 10:59:54;;;;;;;1.52;0.70;;;;;;;14.83;50.11;98634.19;3599429;40;20050;-64
2021/05/18 11:02:25;;;;;;;3.35;1.00;;;;;;;14.79;50.67;98635.66;3600023;40;20405;-65
2021/05/18 11:04:55;;;;;;;1.58;0.70;;;;;;;14.38;50.82;98657.59;3598620;40;20320;-65
2021/05/18 11:07:30;;;;;;;2.40;0.60;;;;;;;13.65;49.84;98658.22;3599654;39;20051;-65
2021/05/18 11:09:58;;;;;;;1.45;0.70;;;;;;;13.07;52.20;98666.31;3599075;40;20132;-66
2021/05/18 11:12:26;;;;;;;2.50;0.98;;;;;;;12.87;55.59;98669.88;3600609;39;20084;-64
2021/05/18 11:15:07;;;;;;;2.90;0.60;;;;;;;12.74;58.58;98666.47;3600204;40;20047;-67
2021/05/18 11:17:37;;;;;;;2.50;0.95;;;;;;;12.67;59.62;98681.59;3600008;39;20389;-65
2021/05/18 11:20:09;;;;;;;3.88;1.23;;;;;;;12.32;61.39;98669.41;3599520;40;20329;-66
2021/05/18 11:25:51;;;;;;;3.13;1.20;;;;;;;11.87;64.85;98677.19;3600048;40;20675;-65
2021/05/18 11:28:23;;;;;;;4.63;1.48;;;;;;;11.78;65.67;98675.75;3600813;40;20048;-65
2021/05/18 11:30:55;;;;;;;6.20;1.35;;;;;;;11.77;66.59;98673.31;3600339;40;20255;-65
2021/05/18 11:33:29;;;;;;;2.92;1.20;;;;;;;11.82;67.30;98673.50;3600224;40;20040;-65
2021/05/18 11:36:03;;;;;;;4.55;1.70;;;;;;;11.86;67.01;98666.81;3598530;40;20133;-65
2021/05/18 11:38:30;;;;;;;3.90;1.40;;;;;;;12.02;66.61;98682.31;3599323;40;20144;-67
2021/05/18 11:40:58;;;;;;;3.03;1.38;;;;;;;12.32;66.39;98665.94;3598499;40;20047;-66
2021/05/18 11:43:34;;;;;;;5.10;1.20;;;;;;;12.50;66.43;98662.66;3599283;40;20052;-66
2021/05/18 11:46:06;;;;;;;3.90;1.30;;;;;;;12.79;65.77;98667.47;3599512;40;20107;-66
2021/05/18 11:48:34;;;;;;;5.85;2.20;;;;;;;12.92;64.68;98660.47;3599443;40;20044;-65
2021/05/18 11:51:07;;;;;;;2.45;1.40;;;;;;;13.12;65.21;98656.69;3599127;40;20099;-65
2021/05/18 11:53:38;;;;;;;3.08;1.30;;;;;;;13.25;64.64;98649.72;3599267;40;20048;-66
2021/05/18 11:56:26;;;;;;;4.35;1.58;;;;;;;13.23;64.20;98641.97;3598244;40;20055;-64
2021/05/18 11:59:02;;;;;;;2.97;1.08;;;;;;;13.27;63.35;98637.88;3599265;40;20325;-64
2021/05/18 12:01:31;;;;;;;2.63;1.00;;;;;;;13.31;63.26;98635.59;3598959;40;20047;-65
2021/05/18 12:04:04;;;;;;;4.35;1.20;;;;;;;13.71;64.31;98629.97;3598785;39;20044;-64
2021/05/18 12:06:34;;;;;;;5.73;1.50;;;;;;;14.09;63.87;98630.69;3599759;40;20087;-64
2021/05/18 12:09:03;;;;;;;2.42;1.13;;;;;;;14.26;61.62;98627.44;3599963;40;20461;-65
2021/05/18 12:11:30;;;;;;;2.22;1.00;;;;;;;14.42;58.76;98623.41;3599881;40;20041;-64
2021/05/18 12:13:58;;;;;;;2.92;1.20;;;;;;;14.79;58.03;98616.22;3600102;40;20044;-65
2021/05/18 12:16:26;;;;;;;3.08;1.10;;;;;;;15.00;56.30;98617.59;3600311;40;20051;-66
2021/05/18 12:18:56;;;;;;;3.13;1.00;;;;;;;15.33;55.86;98615.25;3599610;39;20048;-66
2021/05/18 12:21:26;;;;;;;4.55;1.55;;;;;;;15.64;54.82;98615.22;3599741;39;20036;-65
2021/05/18 12:24:09;;;;;;;2.22;1.00;;;;;;;15.42;54.55;98606.94;3599797;40;20108;-65
2021/05/18 12:26:49;;;;;;;3.40;1.20;;;;;;;14.88;55.22;98616.72;3600531;39;20317;-65
2021/05/18 12:29:33;;;;;;;3.50;2.47;;;;;;;14.51;54.80;98635.38;3600286;40;20121;-65
2021/05/18 12:32:18;;;;;;;4.82;2.40;;;;;;;14.09;55.46;98625.38;3599149;40;20320;-66
2021/05/18 12:34:48;;;;;;;3.33;1.20;;;;;;;13.68;57.51;98651.69;3600041;40;20141;-65
2021/05/18 12:37:16;;;;;;;3.00;1.80;;;;;;;13.08;61.61;98652.03;3599779;40;20052;-65
2021/05/18 12:39:45;;;;;;;2.90;2.20;;;;;;;12.67;62.47;98661.19;3600744;39;20084;-65
2021/05/18 12:42:24;;;;;;;2.63;1.20;;;;;;;12.33;63.59;98649.06;3599923;40;20059;-65
2021/05/18 12:44:55;;;;;;;4.20;1.40;;;;;;;12.35;63.88;98642.50;3600188;39;20088;-64
2021/05/18 12:47:27;;;;;;;3.53;2.30;;;;;;;12.46;63.62;98642.91;3600199;40;20059;-65
2021/05/18 12:49:57;;;;;;;3.55;1.80;;;;;;;12.51;63.89;98638.59;3600172;40;20044;-65
2021/05/18 12:52:34;;;;;;;3.08;1.75;;;;;;;12.71;63.67;98637.72;3600237;39;20405;-65
2021/05/18 12:55:12;;;;;;;4.53;2.17;;;;;;;13.10;64.08;98642.84;3600286;40;20055;-65
2021/05/18 12:57:49;;;;;;;4.85;2.00;;;;;;;13.26;64.59;98636.22;3599674;39;20059;-65
2021/05/18 13:00:21;;;;;;;4.18;2.30;;;;;;;13.31;64.74;98644.38;3599899;39;20353;-65
2021/05/18 13:02:48;;;;;;;2.90;1.40;;;;;;;13.51;64.32;98636.28;3598802;40;20044;-65
2021/05/18 13:05:20;;;;;;;2.35;1.50;;;;;;;13.88;63.92;98645.19;3601015;40;20047;-66
2021/05/18 13:08:10;;;;;;;4.30;2.00;;;;;;;14.09;63.23;98648.47;3598931;40;20059;-65
2021/05/18 13:10:43;;;;;;;4.68;1.75;;;;;;;13.91;62.36;98648.41;3599400;40;20063;-64
2021/05/18 13:13:11;;;;;;;6.00;2.50;;;;;;;13.80;62.75;98649.97;3600376;40;20060;-64
2021/05/18 13:15:38;;;;;;;3.28;1.92;;;;;;;13.80;62.86;98648.09;3598795;40;20043;-65
2021/05/18 13:18:09;;;;;;;6.30;2.80;;;;;;;13.86;63.39;98641.91;3599471;40;20044;-64
2021/05/18 13:20:50;;;;;;;4.63;2.42;;;;;;;13.97;62.95;98643.06;3598497;40;20105;-65
2021/05/18 13:23:34;;;;;;;4.63;2.35;;;;;;;14.10;62.87;98640.28;3601252;40;20050;-64
2021/05/18 13:28:46;;;;;;;5.20;1.80;;;;;;;14.26;62.75;98648.72;3601170;40;20084;-63
2021/05/18 13:31:14;;;;;;;4.95;1.58;;;;;;;14.23;61.63;98649.16;3600277;40;20048;-65
2021/05/18 13:33:41;;;;;;;5.47;1.42;;;;;;;14.08;61.21;98652.97;3599435;40;20047;-65
2021/05/18 13:36:09;;;;;;;4.82;1.70;;;;;;;14.08;62.35;98646.81;3600050;40;20039;-64
2021/05/18 13:38:37;;;;;;;4.28;1.75;;;;;;;14.23;63.08;98641.97;3600376;40;20406;-65
2021/05/18 13:41:05;;;;;;;4.03;1.92;;;;;;;14.56;63.43;98638.19;3599523;40;20051;-65
2021/05/18 13:43:33;;;;;;;5.15;2.63;;;;;;;15.09;63.44;98629.53;3599572;40;20389;-66
2021/05/18 13:46:01;;;;;;;3.90;1.48;;;;;;;15.13;62.88;98630.72;3599784;40;20468;-66
2021/05/18 13:48:28;;;;;;;4.05;1.55;;;;;;;15.08;62.04;98627.94;3598610;40;20055;-66
2021/05/18 13:50:56;;;;;;;2.50;1.40;;;;;;;14.91;61.88;98629.59;3599385;40;20048;-66
2021/05/18 13:53:45;;;;;;;2.53;1.85;;;;;;;14.69;62.08;98637.22;3599276;40;20058;-66
2021/05/18 13:56:17;;;;;;;2.90;1.60;;;;;;;14.74;61.41;98640.03;3600266;40;20044;-66
2021/05/18 13:58:45;;;;;;;4.40;2.15;;;;;;;14.77;60.97;98631.59;3599169;40;20039;-67
2021/05/18 14:01:15;;;;;;;3.67;2.75;;;;;;;14.85;60.95;98628.63;3599352;40;20047;-65
2021/05/18 14:03:42;;;;;;;4.60;2.08;;;;;;;14.99;61.69;98637.28;3599692;39;20044;-66
2021/05/18 14:06:13;;;;;;;4.57;2.40;;;;;;;15.47;61.48;98637.22;3599140;40;20054;-66
2021/05/18 14:08:40;;;;;;;4.47;2.28;;;;;;;15.41;61.38;98621.31;3597891;40;20076;-66
2021/05/18 14:11:11;;;;;;;9.20;6.13;;;;;;;15.20;61.08;98623.44;3600245;40;20351;-66
2021/05/18 14:13:40;;;;;;;3.67;2.47;;;;;;;15.17;61.01;98629.22;3600553;40;20398;-66
2021/05/18 14:16:09;;;;;;;4.90;2.45;;;;;;;15.35;60.95;98623.84;3599556;40;20047;-64
2021/05/18 14:18:38;;;;;;;3.88;2.25;;;;;;;15.47;61.15;98615.06;3599207;40;20048;-65
2021/05/18 14:21:06;;;;;;;3.92;3.50;;;;;;;15.78;61.23;98613.97;3598364;40;20059;-64
2021/05/18 14:23:39;;;;;;;10.32;7.55;;;;;;;15.66;60.83;98605.97;3598468;40;20056;-66
2021/05/18 14:26:07;;;;;;;11.07;7.53;;;;;;;15.60;60.10;98606.88;3599137;40;20383;-65
2021/05/18 14:28:36;;;;;;;3.35;1.85;;;;;;;15.78;58.97;98604.13;3598398;40;20048;-65
2021/05/18 14:31:06;;;;;;;5.25;4.13;;;;;;;15.95;58.04;98601.59;3598426;40;20071;-65
2021/05/18 14:33:34;;;;;;;4.40;3.10;;;;;;;16.07;56.06;98593.59;3598854;40;20396;-66
2021/05/18 14:36:01;;;;;;;6.57;4.63;;;;;;;16.28;55.47;98587.63;3600017;40;20055;-65
2021/05/18 14:38:29;;;;;;;10.10;6.13;;;;;;;16.21;53.43;98589.66;3599714;40;20054;-65
2021/05/18 14:46:31;;;;;;;4.15;3.20;;;;;;;16.42;52.84;98580.22;3599702;39;20317;-65
2021/05/18 14:54:45;;;;;;;1.70;1.00;;;;;;;15.71;53.44;98581.28;3598988;40;20405;-66
2021/05/18 14:57:12;;;;;;;1.50;1.23;;;;;;;15.66;52.99;98581.19;3598211;40;20032;-65
2021/05/18 14:59:41;;;;;;;1.48;1.00;;;;;;;15.49;54.15;98581.84;3600219;40;20125;-64
2021/05/18 15:02:09;;;;;;;8.45;6.63;;;;;;;15.39;54.07;98581.59;3600156;40;20047;-65
2021/05/18 15:04:38;;;;;;;2.45;1.60;;;;;;;15.44;54.33;98576.38;3599734;40;20068;-65
2021/05/18 15:07:07;;;;;;;2.35;1.10;;;;;;;15.60;54.35;98562.38;3598758;40;20048;-65
2021/05/18 15:09:39;;;;;;;1.73;1.00;;;;;;;15.87;53.41;98569.13;3599060;40;20365;-66
2021/05/18 15:12:08;;;;;;;0.97;0.90;;;;;;;15.90;53.05;98561.50;3601194;39;20032;-66
2021/05/18 15:14:40;;;;;;;1.52;0.70;;;;;;;16.07;53.05;98559.72;3598336;40;20293;-66
2021/05/18 15:17:07;;;;;;;2.72;0.82;;;;;;;15.94;53.17;98554.66;3601334;40;20403;-65
2021/05/18 15:19:35;;;;;;;0.85;0.82;;;;;;;16.11;52.00;98562.75;3600170;40;20059;-65
2021/05/18 15:22:04;;;;;;;1.45;0.63;;;;;;;15.90;50.04;98561.50;3599637;40;20062;-65
2021/05/18 15:24:32;;;;;;;2.38;1.20;;;;;;;15.92;51.06;98571.91;3599659;39;20044;-65
2021/05/18 15:27:01;;;;;;;3.00;0.75;;;;;;;15.89;50.49;98575.88;3600108;40;20071;-65
2021/05/18 15:29:30;;;;;;;1.05;0.60;;;;;;;15.83;50.94;98566.94;3599834;40;20051;-65
2021/05/18 15:31:59;;;;;;;1.58;0.95;;;;;;;15.58;51.32;98567.13;3599134;40;20117;-67
2021/05/18 15:34:27;;;;;;;3.17;1.00;;;;;;;15.44;52.40;98579.06;3598876;39;20043;-65
2021/05/18 15:36:55;;;;;;;1.20;0.73;;;;;;;15.33;52.85;98580.66;3599161;40;20338;-66
2021/05/18 15:39:25;;;;;;;1.27;0.80;;;;;;;15.29;53.40;98573.34;3598983;40;20052;-64
2021/05/18 15:41:53;;;;;;;2.08;1.08;;;;;;;15.27;53.38;98575.44;3600077;39;20084;-65
2021/05/18 15:44:21;;;;;;;2.75;0.93;;;;;;;15.16;53.31;98577.03;3599256;40;20048;-66
2021/05/18 15:46:49;;;;;;;2.15;0.90;;;;;;;14.98;53.36;98601.84;3597907;40;20048;-65
2021/05/18 15:49:18;;;;;;;3.85;0.60;;;;;;;14.63;52.48;98604.34;3599992;40;20060;-65
2021/05/18 15:51:47;;;;;;;5.72;0.90;;;;;;;14.20;54.07;98612.34;3600997;40;20048;-66
2021/05/18 15:54:15;;;;;;;1.70;0.60;;;;;;;13.94;54.55;98627.53;3598943;40;20313;-65
2021/05/18 15:56:42;;;;;;;0.98;0.40;;;;;;;13.54;55.77;98649.09;3597771;40;20432;-64
2021/05/18 15:59:12;;;;;;;1.83;0.52;;;;;;;13.31;57.12;98660.31;3599157;40;20112;-64
2021/05/18 16:01:40;;;;;;;3.78;0.82;;;;;;;13.18;58.48;98660.31;3598768;40;20286;-65
2021/05/18 16:04:08;;;;;;;1.60;0.75;;;;;;;12.99;59.84;98664.72;3597670;40;20494;-64
2021/05/18 16:06:40;;;;;;;2.75;0.75;;;;;;;12.76;61.54;98664.41;3599136;39;20394;-65
2021/05/18 16:09:08;;;;;;;1.25;0.70;;;;;;;12.43;62.88;98657.38;3599043;39;20040;-64
2021/05/18 16:11:36;;;;;;;0.60;0.60;;;;;;;12.14;63.99;98659.47;3598671;39;20036;-65
2021/05/18 16:14:04;;;;;;;1.88;0.90;;;;;;;12.02;64.77;98661.09;3598593;40;20052;-64
2021/05/18 16:16:31;;;;;;;0.88;0.80;;;;;;;12.04;65.01;98667.03;3599417;40;20092;-64
2021/05/18 16:18:59;;;;;;;3.15;1.05;;;;;;;11.96;65.53;98669.88;3599622;40;20051;-64
2021/05/18 16:21:27;;;;;;;2.50;0.63;;;;;;;12.06;65.46;98678.22;3600327;40;20035;-66